Airfield :
LOGIN :

Register | Disclaimer

   EN    FR    IT 

 










Legend :    VFR   Marginal VFR   IFR   Intensive IFR   Very Intensive IFR
Visi :
Ceiling :
>= 8 km
>= 3000ft
5 to 8 km
1000 to 3000 ft
1500m to 5 km
500 to 1000 ft
800 to 1500m
200 to 500 ft
< 800m
< 200 ft
Symbols :   Thunderstorms  Fog  Heavy snow  Heavy precipitations  Wind > 20 kt
SIGMETs :     Misc.  Thunderstorms  Icing  Turbulence  Mountain Waves  Volcanic Ashes






- Airport Elevation : 48 ft
- IATA code : PSR


LIBP - Abruzzo Pescara

CURRENT METAR :
  • 260520Z AUTO 24004KT 9999 OVC027/// 11/10 Q1020

EXPIRED METARs :
  • 260450Z AUTO 23003KT 9999 OVC026/// 11/10 Q1020
  • 260420Z AUTO 21004KT 170V240 9999 OVC025/// 11/10 Q1020
  • 260350Z AUTO 21005KT 9999 BKN027/// 10/10 Q1020
  • 260320Z AUTO 21004KT 9999 SCT028/// 09/09 Q1020
  • 260250Z AUTO 23003KT 9999 NCD 10/09 Q1020

TAF TAF LIBP
Valid from the 26 at 06:00 until the 27 at 06:00 UTC


260500Z 2606/2706 VRB05KT 9999 SCT030
BECMG 2608/2610 35010KT
TEMPO 2614/2621 RA
BECMG 2616/2618 VRB05KT



MET'MAP, your aeronautical weather chart ! - Copyright ORBIFLY December 2007 - Disclaimer

ORBIFLY MET'MAP TEAM :

Programming & Development : Alexandra Zaïnal
Concept & original design : Baudouin d'Aumeries
Assistance for programming : Marc-Olivier Méhu
Technical & hardware support : Manuel Goepfert

Contact : metmap@orbifly.com




SOURCES & CREDITS :

   NOAA